sensor_id;sensor_type;location;lat;lon;timestamp;P1;durP1;ratioP1;P2;durP2;ratioP2
34960;SDS011;30789;52.030;7.110;2022-12-26T00:01:37;15.43;;;9.05;;
34960;SDS011;30789;52.030;7.110;2022-12-26T00:04:05;12.52;;;8.40;;
34960;SDS011;30789;52.030;7.110;2022-12-26T00:06:32;12.07;;;8.35;;
34960;SDS011;30789;52.030;7.110;2022-12-26T00:08:59;15.60;;;8.65;;
34960;SDS011;30789;52.030;7.110;2022-12-26T00:11:25;9.70;;;7.28;;
34960;SDS011;30789;52.030;7.110;2022-12-26T00:13:52;13.27;;;7.82;;
34960;SDS011;30789;52.030;7.110;2022-12-26T00:16:19;15.40;;;8.75;;
34960;SDS011;30789;52.030;7.110;2022-12-26T00:18:45;15.90;;;8.48;;
34960;SDS011;30789;52.030;7.110;2022-12-26T00:21:13;10.90;;;7.43;;
34960;SDS011;30789;52.030;7.110;2022-12-26T00:23:40;16.52;;;8.98;;
34960;SDS011;30789;52.030;7.110;2022-12-26T00:26:07;12.98;;;8.30;;
34960;SDS011;30789;52.030;7.110;2022-12-26T00:28:34;13.82;;;8.48;;
34960;SDS011;30789;52.030;7.110;2022-12-26T00:31:02;14.38;;;8.27;;
34960;SDS011;30789;52.030;7.110;2022-12-26T00:33:28;14.20;;;9.10;;
34960;SDS011;30789;52.030;7.110;2022-12-26T00:35:59;17.00;;;9.38;;
34960;SDS011;30789;52.030;7.110;2022-12-26T00:38:26;18.67;;;10.02;;
34960;SDS011;30789;52.030;7.110;2022-12-26T00:40:52;13.57;;;8.07;;
34960;SDS011;30789;52.030;7.110;2022-12-26T00:43:19;17.23;;;9.73;;
34960;SDS011;30789;52.030;7.110;2022-12-26T00:45:46;16.27;;;10.40;;
34960;SDS011;30789;52.030;7.110;2022-12-26T00:48:13;14.98;;;9.43;;
34960;SDS011;30789;52.030;7.110;2022-12-26T00:50:39;18.20;;;9.85;;
34960;SDS011;30789;52.030;7.110;2022-12-26T00:53:05;18.10;;;10.80;;
34960;SDS011;30789;52.030;7.110;2022-12-26T00:55:33;16.77;;;9.57;;
34960;SDS011;30789;52.030;7.110;2022-12-26T00:57:59;15.90;;;10.30;;
34960;SDS011;30789;52.030;7.110;2022-12-26T01:00:25;16.38;;;10.20;;
34960;SDS011;30789;52.030;7.110;2022-12-26T01:02:51;15.45;;;10.55;;
34960;SDS011;30789;52.030;7.110;2022-12-26T01:05:18;16.60;;;10.85;;
34960;SDS011;30789;52.030;7.110;2022-12-26T01:07:44;17.27;;;10.30;;
34960;SDS011;30789;52.030;7.110;2022-12-26T01:10:11;17.98;;;10.90;;
34960;SDS011;30789;52.030;7.110;2022-12-26T01:12:39;17.38;;;10.77;;
34960;SDS011;30789;52.030;7.110;2022-12-26T01:15:05;19.48;;;10.95;;
34960;SDS011;30789;52.030;7.110;2022-12-26T01:17:32;20.30;;;11.35;;
34960;SDS011;30789;52.030;7.110;2022-12-26T01:19:59;15.48;;;10.23;;
34960;SDS011;30789;52.030;7.110;2022-12-26T01:22:25;18.45;;;11.68;;
34960;SDS011;30789;52.030;7.110;2022-12-26T01:24:52;17.92;;;11.13;;
34960;SDS011;30789;52.030;7.110;2022-12-26T01:27:18;18.20;;;10.85;;
34960;SDS011;30789;52.030;7.110;2022-12-26T01:29:46;16.85;;;11.05;;
34960;SDS011;30789;52.030;7.110;2022-12-26T01:32:12;20.10;;;12.10;;
34960;SDS011;30789;52.030;7.110;2022-12-26T01:34:39;19.38;;;11.38;;
34960;SDS011;30789;52.030;7.110;2022-12-26T01:37:05;18.60;;;11.65;;
34960;SDS011;30789;52.030;7.110;2022-12-26T01:39:32;18.42;;;11.45;;
34960;SDS011;30789;52.030;7.110;2022-12-26T01:41:58;19.08;;;11.85;;
34960;SDS011;30789;52.030;7.110;2022-12-26T01:47:13;20.63;;;11.63;;
34960;SDS011;30789;52.030;7.110;2022-12-26T01:49:39;21.77;;;11.20;;
34960;SDS011;30789;52.030;7.110;2022-12-26T01:52:07;24.25;;;12.07;;
34960;SDS011;30789;52.030;7.110;2022-12-26T01:54:35;18.92;;;11.32;;
34960;SDS011;30789;52.030;7.110;2022-12-26T01:57:04;21.27;;;11.90;;
34960;SDS011;30789;52.030;7.110;2022-12-26T01:59:32;23.83;;;12.32;;
34960;SDS011;30789;52.030;7.110;2022-12-26T02:02:00;22.00;;;12.85;;
34960;SDS011;30789;52.030;7.110;2022-12-26T02:04:28;20.20;;;11.65;;
34960;SDS011;30789;52.030;7.110;2022-12-26T02:07:13;21.30;;;11.75;;
34960;SDS011;30789;52.030;7.110;2022-12-26T02:09:39;21.42;;;12.07;;
34960;SDS011;30789;52.030;7.110;2022-12-26T02:12:07;23.50;;;12.68;;
34960;SDS011;30789;52.030;7.110;2022-12-26T02:14:36;21.10;;;12.98;;
34960;SDS011;30789;52.030;7.110;2022-12-26T02:17:02;22.08;;;12.38;;
34960;SDS011;30789;52.030;7.110;2022-12-26T02:19:32;26.23;;;13.45;;
34960;SDS011;30789;52.030;7.110;2022-12-26T02:22:05;21.67;;;13.13;;
34960;SDS011;30789;52.030;7.110;2022-12-26T02:24:41;21.75;;;12.70;;
34960;SDS011;30789;52.030;7.110;2022-12-26T02:27:21;22.63;;;12.35;;
34960;SDS011;30789;52.030;7.110;2022-12-26T02:29:58;25.45;;;12.88;;
34960;SDS011;30789;52.030;7.110;2022-12-26T02:32:31;24.38;;;14.07;;
34960;SDS011;30789;52.030;7.110;2022-12-26T02:35:00;24.38;;;13.98;;
34960;SDS011;30789;52.030;7.110;2022-12-26T02:37:30;23.88;;;13.85;;
34960;SDS011;30789;52.030;7.110;2022-12-26T02:42:27;25.80;;;14.35;;
34960;SDS011;30789;52.030;7.110;2022-12-26T02:44:57;23.23;;;13.10;;
34960;SDS011;30789;52.030;7.110;2022-12-26T02:47:49;26.42;;;13.82;;
34960;SDS011;30789;52.030;7.110;2022-12-26T02:50:19;26.95;;;14.48;;
34960;SDS011;30789;52.030;7.110;2022-12-26T02:53:07;26.45;;;12.98;;
34960;SDS011;30789;52.030;7.110;2022-12-26T02:55:54;26.63;;;14.50;;
34960;SDS011;30789;52.030;7.110;2022-12-26T02:58:40;28.13;;;15.32;;
34960;SDS011;30789;52.030;7.110;2022-12-26T03:01:29;29.23;;;14.85;;
34960;SDS011;30789;52.030;7.110;2022-12-26T03:04:15;26.23;;;14.48;;
34960;SDS011;30789;52.030;7.110;2022-12-26T03:07:03;25.50;;;13.88;;
34960;SDS011;30789;52.030;7.110;2022-12-26T03:09:47;28.63;;;14.60;;
34960;SDS011;30789;52.030;7.110;2022-12-26T03:12:38;23.65;;;14.38;;
34960;SDS011;30789;52.030;7.110;2022-12-26T03:15:23;26.33;;;15.20;;
34960;SDS011;30789;52.030;7.110;2022-12-26T03:17:52;29.48;;;15.05;;
34960;SDS011;30789;52.030;7.110;2022-12-26T03:20:20;27.50;;;14.32;;
34960;SDS011;30789;52.030;7.110;2022-12-26T03:22:50;25.25;;;13.73;;
34960;SDS011;30789;52.030;7.110;2022-12-26T03:25:18;26.05;;;14.93;;
34960;SDS011;30789;52.030;7.110;2022-12-26T03:28:02;27.75;;;14.68;;
34960;SDS011;30789;52.030;7.110;2022-12-26T03:30:29;26.63;;;14.98;;
34960;SDS011;30789;52.030;7.110;2022-12-26T03:33:13;26.50;;;13.98;;
34960;SDS011;30789;52.030;7.110;2022-12-26T03:35:54;29.73;;;15.45;;
34960;SDS011;30789;52.030;7.110;2022-12-26T03:38:21;27.17;;;15.23;;
34960;SDS011;30789;52.030;7.110;2022-12-26T03:40:50;26.80;;;14.43;;
34960;SDS011;30789;52.030;7.110;2022-12-26T03:43:40;25.90;;;13.43;;
34960;SDS011;30789;52.030;7.110;2022-12-26T03:46:28;25.55;;;13.98;;
34960;SDS011;30789;52.030;7.110;2022-12-26T03:49:18;26.90;;;14.98;;
34960;SDS011;30789;52.030;7.110;2022-12-26T03:52:07;26.17;;;13.80;;
34960;SDS011;30789;52.030;7.110;2022-12-26T03:54:53;24.75;;;13.85;;
34960;SDS011;30789;52.030;7.110;2022-12-26T03:57:39;26.10;;;13.40;;
34960;SDS011;30789;52.030;7.110;2022-12-26T04:00:28;23.40;;;12.75;;
34960;SDS011;30789;52.030;7.110;2022-12-26T04:03:13;25.73;;;13.48;;
34960;SDS011;30789;52.030;7.110;2022-12-26T04:06:00;25.45;;;14.10;;
34960;SDS011;30789;52.030;7.110;2022-12-26T04:08:48;23.98;;;13.93;;
34960;SDS011;30789;52.030;7.110;2022-12-26T04:11:32;26.95;;;13.80;;
34960;SDS011;30789;52.030;7.110;2022-12-26T04:14:19;26.27;;;14.15;;
34960;SDS011;30789;52.030;7.110;2022-12-26T04:17:07;23.10;;;12.90;;
34960;SDS011;30789;52.030;7.110;2022-12-26T04:19:54;19.90;;;11.80;;
34960;SDS011;30789;52.030;7.110;2022-12-26T04:22:24;26.40;;;13.65;;
34960;SDS011;30789;52.030;7.110;2022-12-26T04:25:12;21.75;;;14.07;;
34960;SDS011;30789;52.030;7.110;2022-12-26T04:27:57;26.25;;;14.10;;
34960;SDS011;30789;52.030;7.110;2022-12-26T04:30:41;25.25;;;13.73;;
34960;SDS011;30789;52.030;7.110;2022-12-26T04:33:35;25.42;;;14.60;;
34960;SDS011;30789;52.030;7.110;2022-12-26T04:36:24;26.75;;;14.15;;
34960;SDS011;30789;52.030;7.110;2022-12-26T04:39:12;28.10;;;16.35;;
34960;SDS011;30789;52.030;7.110;2022-12-26T04:41:58;27.67;;;15.60;;
34960;SDS011;30789;52.030;7.110;2022-12-26T04:44:42;28.27;;;16.85;;
34960;SDS011;30789;52.030;7.110;2022-12-26T04:47:09;32.85;;;17.27;;
34960;SDS011;30789;52.030;7.110;2022-12-26T04:49:40;29.00;;;16.77;;
34960;SDS011;30789;52.030;7.110;2022-12-26T04:52:24;32.88;;;17.67;;
34960;SDS011;30789;52.030;7.110;2022-12-26T04:55:11;35.05;;;18.20;;
34960;SDS011;30789;52.030;7.110;2022-12-26T04:57:38;34.25;;;18.33;;
34960;SDS011;30789;52.030;7.110;2022-12-26T05:00:05;34.25;;;19.25;;
34960;SDS011;30789;52.030;7.110;2022-12-26T05:02:31;33.38;;;18.20;;
34960;SDS011;30789;52.030;7.110;2022-12-26T05:05:15;33.85;;;19.40;;
34960;SDS011;30789;52.030;7.110;2022-12-26T05:07:59;36.22;;;18.75;;
34960;SDS011;30789;52.030;7.110;2022-12-26T05:10:43;33.30;;;18.05;;
34960;SDS011;30789;52.030;7.110;2022-12-26T05:13:11;32.63;;;19.50;;
34960;SDS011;30789;52.030;7.110;2022-12-26T05:15:37;32.03;;;18.42;;
34960;SDS011;30789;52.030;7.110;2022-12-26T05:18:17;32.10;;;17.15;;
34960;SDS011;30789;52.030;7.110;2022-12-26T05:21:04;29.48;;;17.55;;
34960;SDS011;30789;52.030;7.110;2022-12-26T05:23:48;30.90;;;18.83;;
34960;SDS011;30789;52.030;7.110;2022-12-26T05:26:32;28.95;;;18.10;;
34960;SDS011;30789;52.030;7.110;2022-12-26T05:29:16;28.27;;;17.10;;
34960;SDS011;30789;52.030;7.110;2022-12-26T05:31:42;26.38;;;16.17;;
34960;SDS011;30789;52.030;7.110;2022-12-26T05:34:09;27.08;;;16.90;;
34960;SDS011;30789;52.030;7.110;2022-12-26T05:36:36;24.95;;;16.17;;
34960;SDS011;30789;52.030;7.110;2022-12-26T05:39:04;32.65;;;19.25;;
34960;SDS011;30789;52.030;7.110;2022-12-26T05:41:30;26.33;;;16.20;;
34960;SDS011;30789;52.030;7.110;2022-12-26T05:43:57;27.60;;;17.13;;
34960;SDS011;30789;52.030;7.110;2022-12-26T05:46:24;31.08;;;16.42;;
34960;SDS011;30789;52.030;7.110;2022-12-26T05:48:51;20.90;;;13.80;;
34960;SDS011;30789;52.030;7.110;2022-12-26T05:51:17;22.05;;;14.60;;
34960;SDS011;30789;52.030;7.110;2022-12-26T05:53:43;22.73;;;14.27;;
34960;SDS011;30789;52.030;7.110;2022-12-26T05:56:11;20.30;;;13.13;;
34960;SDS011;30789;52.030;7.110;2022-12-26T05:58:38;21.75;;;13.65;;
34960;SDS011;30789;52.030;7.110;2022-12-26T06:01:05;20.25;;;13.05;;
34960;SDS011;30789;52.030;7.110;2022-12-26T06:03:33;21.10;;;13.32;;
34960;SDS011;30789;52.030;7.110;2022-12-26T06:06:00;20.77;;;13.18;;
34960;SDS011;30789;52.030;7.110;2022-12-26T06:08:26;20.48;;;12.43;;
34960;SDS011;30789;52.030;7.110;2022-12-26T06:10:53;19.23;;;11.55;;
34960;SDS011;30789;52.030;7.110;2022-12-26T06:13:19;19.17;;;11.35;;
34960;SDS011;30789;52.030;7.110;2022-12-26T06:15:45;19.55;;;12.60;;
34960;SDS011;30789;52.030;7.110;2022-12-26T06:18:11;15.93;;;11.52;;
34960;SDS011;30789;52.030;7.110;2022-12-26T06:20:39;18.40;;;12.75;;
34960;SDS011;30789;52.030;7.110;2022-12-26T06:23:05;15.05;;;10.80;;
34960;SDS011;30789;52.030;7.110;2022-12-26T06:25:32;15.98;;;10.93;;
34960;SDS011;30789;52.030;7.110;2022-12-26T06:27:58;18.98;;;11.07;;
34960;SDS011;30789;52.030;7.110;2022-12-26T06:30:24;15.60;;;9.80;;
34960;SDS011;30789;52.030;7.110;2022-12-26T06:32:50;11.75;;;9.20;;
34960;SDS011;30789;52.030;7.110;2022-12-26T06:35:17;15.27;;;10.10;;
34960;SDS011;30789;52.030;7.110;2022-12-26T06:37:44;14.88;;;9.98;;
34960;SDS011;30789;52.030;7.110;2022-12-26T06:40:11;14.25;;;9.50;;
34960;SDS011;30789;52.030;7.110;2022-12-26T06:42:37;13.63;;;9.77;;
34960;SDS011;30789;52.030;7.110;2022-12-26T06:45:04;12.52;;;8.95;;
34960;SDS011;30789;52.030;7.110;2022-12-26T06:47:30;11.70;;;8.48;;
34960;SDS011;30789;52.030;7.110;2022-12-26T06:49:56;12.45;;;9.43;;
34960;SDS011;30789;52.030;7.110;2022-12-26T06:52:22;10.65;;;8.10;;
34960;SDS011;30789;52.030;7.110;2022-12-26T06:54:50;14.48;;;9.25;;
34960;SDS011;30789;52.030;7.110;2022-12-26T06:57:16;16.27;;;9.45;;
34960;SDS011;30789;52.030;7.110;2022-12-26T06:59:43;11.55;;;8.35;;
34960;SDS011;30789;52.030;7.110;2022-12-26T07:02:09;11.13;;;8.07;;
34960;SDS011;30789;52.030;7.110;2022-12-26T07:04:35;13.40;;;8.88;;
34960;SDS011;30789;52.030;7.110;2022-12-26T07:07:02;10.85;;;7.75;;
34960;SDS011;30789;52.030;7.110;2022-12-26T07:09:28;10.70;;;7.82;;
34960;SDS011;30789;52.030;7.110;2022-12-26T07:11:55;11.80;;;8.15;;
34960;SDS011;30789;52.030;7.110;2022-12-26T07:14:22;11.57;;;9.00;;
34960;SDS011;30789;52.030;7.110;2022-12-26T07:16:48;11.02;;;8.07;;
34960;SDS011;30789;52.030;7.110;2022-12-26T07:19:14;11.77;;;8.90;;
34960;SDS011;30789;52.030;7.110;2022-12-26T07:21:41;12.35;;;8.40;;
34960;SDS011;30789;52.030;7.110;2022-12-26T07:24:09;12.60;;;8.50;;
34960;SDS011;30789;52.030;7.110;2022-12-26T07:26:38;13.57;;;9.40;;
34960;SDS011;30789;52.030;7.110;2022-12-26T07:29:06;14.90;;;9.98;;
34960;SDS011;30789;52.030;7.110;2022-12-26T07:31:32;15.20;;;9.80;;
34960;SDS011;30789;52.030;7.110;2022-12-26T07:33:58;15.80;;;9.05;;
34960;SDS011;30789;52.030;7.110;2022-12-26T07:36:25;13.50;;;9.30;;
34960;SDS011;30789;52.030;7.110;2022-12-26T07:38:51;14.30;;;10.05;;
34960;SDS011;30789;52.030;7.110;2022-12-26T07:41:17;12.63;;;9.40;;
34960;SDS011;30789;52.030;7.110;2022-12-26T07:44:01;13.57;;;8.77;;
34960;SDS011;30789;52.030;7.110;2022-12-26T07:46:29;11.88;;;8.77;;
34960;SDS011;30789;52.030;7.110;2022-12-26T07:48:55;13.10;;;9.35;;
34960;SDS011;30789;52.030;7.110;2022-12-26T07:51:22;14.25;;;8.35;;
34960;SDS011;30789;52.030;7.110;2022-12-26T07:53:48;13.60;;;8.65;;
34960;SDS011;30789;52.030;7.110;2022-12-26T07:56:14;12.88;;;8.60;;
34960;SDS011;30789;52.030;7.110;2022-12-26T07:58:41;16.45;;;9.70;;
34960;SDS011;30789;52.030;7.110;2022-12-26T08:01:07;13.50;;;8.80;;
34960;SDS011;30789;52.030;7.110;2022-12-26T08:06:05;11.43;;;7.30;;
34960;SDS011;30789;52.030;7.110;2022-12-26T08:08:32;13.07;;;7.47;;
34960;SDS011;30789;52.030;7.110;2022-12-26T08:10:58;11.25;;;7.10;;
34960;SDS011;30789;52.030;7.110;2022-12-26T08:13:24;11.63;;;7.07;;
34960;SDS011;30789;52.030;7.110;2022-12-26T08:15:51;13.13;;;7.85;;
34960;SDS011;30789;52.030;7.110;2022-12-26T08:18:17;10.65;;;6.90;;
34960;SDS011;30789;52.030;7.110;2022-12-26T08:20:43;11.18;;;7.60;;
34960;SDS011;30789;52.030;7.110;2022-12-26T08:23:11;9.98;;;6.57;;
34960;SDS011;30789;52.030;7.110;2022-12-26T08:25:37;9.73;;;6.32;;
34960;SDS011;30789;52.030;7.110;2022-12-26T08:28:03;9.98;;;6.57;;
34960;SDS011;30789;52.030;7.110;2022-12-26T08:30:30;9.98;;;6.28;;
34960;SDS011;30789;52.030;7.110;2022-12-26T08:32:56;9.57;;;6.38;;
34960;SDS011;30789;52.030;7.110;2022-12-26T08:35:22;10.93;;;7.13;;
34960;SDS011;30789;52.030;7.110;2022-12-26T08:37:49;9.38;;;6.72;;
34960;SDS011;30789;52.030;7.110;2022-12-26T08:40:16;8.68;;;6.88;;
34960;SDS011;30789;52.030;7.110;2022-12-26T08:42:43;8.77;;;6.07;;
34960;SDS011;30789;52.030;7.110;2022-12-26T08:45:09;8.88;;;5.88;;
34960;SDS011;30789;52.030;7.110;2022-12-26T08:47:35;12.38;;;5.85;;
34960;SDS011;30789;52.030;7.110;2022-12-26T08:50:01;7.55;;;5.65;;
34960;SDS011;30789;52.030;7.110;2022-12-26T08:52:28;9.18;;;6.57;;
34960;SDS011;30789;52.030;7.110;2022-12-26T08:54:54;8.13;;;6.25;;
34960;SDS011;30789;52.030;7.110;2022-12-26T08:57:21;13.63;;;6.47;;
34960;SDS011;30789;52.030;7.110;2022-12-26T08:59:48;7.50;;;5.95;;
34960;SDS011;30789;52.030;7.110;2022-12-26T09:02:14;8.00;;;5.68;;
34960;SDS011;30789;52.030;7.110;2022-12-26T09:04:40;9.82;;;5.93;;
34960;SDS011;30789;52.030;7.110;2022-12-26T09:07:07;11.10;;;6.25;;
34960;SDS011;30789;52.030;7.110;2022-12-26T09:09:33;9.32;;;6.00;;
34960;SDS011;30789;52.030;7.110;2022-12-26T09:11:59;10.05;;;5.50;;
34960;SDS011;30789;52.030;7.110;2022-12-26T09:14:27;12.57;;;6.05;;
34960;SDS011;30789;52.030;7.110;2022-12-26T09:16:53;9.50;;;5.22;;
34960;SDS011;30789;52.030;7.110;2022-12-26T09:19:20;8.15;;;5.53;;
34960;SDS011;30789;52.030;7.110;2022-12-26T09:21:47;5.65;;;4.47;;
34960;SDS011;30789;52.030;7.110;2022-12-26T09:24:33;7.18;;;5.30;;
34960;SDS011;30789;52.030;7.110;2022-12-26T09:27:00;11.65;;;5.57;;
34960;SDS011;30789;52.030;7.110;2022-12-26T09:29:27;6.45;;;4.78;;
34960;SDS011;30789;52.030;7.110;2022-12-26T09:31:54;6.60;;;4.82;;
34960;SDS011;30789;52.030;7.110;2022-12-26T09:34:20;5.88;;;4.13;;
34960;SDS011;30789;52.030;7.110;2022-12-26T09:36:46;6.30;;;4.55;;
34960;SDS011;30789;52.030;7.110;2022-12-26T09:39:12;6.20;;;4.15;;
34960;SDS011;30789;52.030;7.110;2022-12-26T09:41:48;7.07;;;4.88;;
34960;SDS011;30789;52.030;7.110;2022-12-26T09:44:18;6.55;;;4.13;;
34960;SDS011;30789;52.030;7.110;2022-12-26T09:46:49;6.85;;;4.00;;
34960;SDS011;30789;52.030;7.110;2022-12-26T09:49:19;10.13;;;4.53;;
34960;SDS011;30789;52.030;7.110;2022-12-26T09:51:47;5.03;;;3.90;;
34960;SDS011;30789;52.030;7.110;2022-12-26T09:54:20;4.13;;;3.65;;
34960;SDS011;30789;52.030;7.110;2022-12-26T09:56:47;4.32;;;3.33;;
34960;SDS011;30789;52.030;7.110;2022-12-26T09:59:14;5.63;;;3.67;;
34960;SDS011;30789;52.030;7.110;2022-12-26T10:01:41;7.00;;;3.80;;
34960;SDS011;30789;52.030;7.110;2022-12-26T10:04:15;8.43;;;4.18;;
34960;SDS011;30789;52.030;7.110;2022-12-26T10:06:43;7.63;;;4.10;;
34960;SDS011;30789;52.030;7.110;2022-12-26T10:09:16;3.90;;;3.15;;
34960;SDS011;30789;52.030;7.110;2022-12-26T10:11:48;7.03;;;3.67;;
34960;SDS011;30789;52.030;7.110;2022-12-26T10:14:16;9.45;;;3.90;;
34960;SDS011;30789;52.030;7.110;2022-12-26T10:16:47;3.80;;;2.53;;
34960;SDS011;30789;52.030;7.110;2022-12-26T10:19:18;5.97;;;3.20;;
34960;SDS011;30789;52.030;7.110;2022-12-26T10:21:51;4.55;;;3.38;;
34960;SDS011;30789;52.030;7.110;2022-12-26T10:24:20;6.18;;;3.47;;
34960;SDS011;30789;52.030;7.110;2022-12-26T10:26:47;3.83;;;3.08;;
34960;SDS011;30789;52.030;7.110;2022-12-26T10:29:17;5.43;;;3.10;;
34960;SDS011;30789;52.030;7.110;2022-12-26T10:31:45;4.20;;;2.50;;
34960;SDS011;30789;52.030;7.110;2022-12-26T10:34:15;4.20;;;3.08;;
34960;SDS011;30789;52.030;7.110;2022-12-26T10:36:45;6.05;;;2.95;;
34960;SDS011;30789;52.030;7.110;2022-12-26T10:39:13;4.07;;;3.05;;
34960;SDS011;30789;52.030;7.110;2022-12-26T10:41:44;4.07;;;3.03;;
34960;SDS011;30789;52.030;7.110;2022-12-26T10:44:11;3.95;;;2.55;;
34960;SDS011;30789;52.030;7.110;2022-12-26T10:49:22;4.55;;;2.53;;
34960;SDS011;30789;52.030;7.110;2022-12-26T10:51:50;7.47;;;3.85;;
34960;SDS011;30789;52.030;7.110;2022-12-26T10:54:18;4.05;;;2.78;;
34960;SDS011;30789;52.030;7.110;2022-12-26T10:56:45;10.77;;;3.83;;
34960;SDS011;30789;52.030;7.110;2022-12-26T10:59:13;5.38;;;3.10;;
34960;SDS011;30789;52.030;7.110;2022-12-26T11:01:40;3.63;;;2.60;;
34960;SDS011;30789;52.030;7.110;2022-12-26T11:04:13;4.28;;;2.22;;
34960;SDS011;30789;52.030;7.110;2022-12-26T11:06:40;4.13;;;2.58;;
34960;SDS011;30789;52.030;7.110;2022-12-26T11:09:19;4.70;;;2.38;;
34960;SDS011;30789;52.030;7.110;2022-12-26T11:11:47;3.88;;;2.30;;
34960;SDS011;30789;52.030;7.110;2022-12-26T11:14:30;7.75;;;2.38;;
34960;SDS011;30789;52.030;7.110;2022-12-26T11:16:59;5.60;;;2.20;;
34960;SDS011;30789;52.030;7.110;2022-12-26T11:19:27;3.28;;;2.08;;
34960;SDS011;30789;52.030;7.110;2022-12-26T11:21:53;6.63;;;2.42;;
34960;SDS011;30789;52.030;7.110;2022-12-26T11:24:21;5.45;;;2.17;;
34960;SDS011;30789;52.030;7.110;2022-12-26T11:26:47;5.10;;;2.20;;
34960;SDS011;30789;52.030;7.110;2022-12-26T11:29:14;7.03;;;2.22;;
34960;SDS011;30789;52.030;7.110;2022-12-26T11:31:42;5.72;;;2.65;;
34960;SDS011;30789;52.030;7.110;2022-12-26T11:34:09;3.20;;;2.22;;
34960;SDS011;30789;52.030;7.110;2022-12-26T11:36:36;4.80;;;2.40;;
34960;SDS011;30789;52.030;7.110;2022-12-26T11:39:05;2.10;;;1.90;;
34960;SDS011;30789;52.030;7.110;2022-12-26T11:41:34;6.80;;;3.28;;
34960;SDS011;30789;52.030;7.110;2022-12-26T11:44:11;4.05;;;2.50;;
34960;SDS011;30789;52.030;7.110;2022-12-26T11:46:38;3.55;;;2.47;;
34960;SDS011;30789;52.030;7.110;2022-12-26T11:49:05;3.25;;;2.00;;
34960;SDS011;30789;52.030;7.110;2022-12-26T11:51:38;2.42;;;2.22;;
34960;SDS011;30789;52.030;7.110;2022-12-26T11:54:11;3.92;;;2.20;;
34960;SDS011;30789;52.030;7.110;2022-12-26T11:56:38;3.53;;;2.28;;
34960;SDS011;30789;52.030;7.110;2022-12-26T11:59:06;3.75;;;2.03;;
34960;SDS011;30789;52.030;7.110;2022-12-26T12:01:37;5.53;;;2.40;;
34960;SDS011;30789;52.030;7.110;2022-12-26T12:04:03;6.30;;;2.35;;
34960;SDS011;30789;52.030;7.110;2022-12-26T12:06:37;5.75;;;2.10;;
34960;SDS011;30789;52.030;7.110;2022-12-26T12:09:05;3.47;;;2.30;;
34960;SDS011;30789;52.030;7.110;2022-12-26T12:11:40;3.35;;;2.35;;
34960;SDS011;30789;52.030;7.110;2022-12-26T12:14:21;5.28;;;2.20;;
34960;SDS011;30789;52.030;7.110;2022-12-26T12:16:51;8.73;;;3.60;;
34960;SDS011;30789;52.030;7.110;2022-12-26T12:19:23;7.25;;;2.55;;
34960;SDS011;30789;52.030;7.110;2022-12-26T12:21:56;18.20;;;2.78;;
34960;SDS011;30789;52.030;7.110;2022-12-26T12:24:28;9.73;;;3.28;;
34960;SDS011;30789;52.030;7.110;2022-12-26T12:26:59;6.07;;;2.13;;
34960;SDS011;30789;52.030;7.110;2022-12-26T12:29:32;7.85;;;3.28;;
34960;SDS011;30789;52.030;7.110;2022-12-26T12:32:04;8.93;;;2.30;;
34960;SDS011;30789;52.030;7.110;2022-12-26T12:34:36;5.13;;;1.77;;
34960;SDS011;30789;52.030;7.110;2022-12-26T12:37:11;7.10;;;1.70;;
34960;SDS011;30789;52.030;7.110;2022-12-26T12:39:45;6.20;;;2.20;;
34960;SDS011;30789;52.030;7.110;2022-12-26T12:42:19;7.90;;;2.22;;
34960;SDS011;30789;52.030;7.110;2022-12-26T12:47:38;3.65;;;1.45;;
34960;SDS011;30789;52.030;7.110;2022-12-26T12:50:07;4.97;;;1.23;;
34960;SDS011;30789;52.030;7.110;2022-12-26T12:52:38;4.75;;;1.42;;
34960;SDS011;30789;52.030;7.110;2022-12-26T12:55:16;5.55;;;1.23;;
34960;SDS011;30789;52.030;7.110;2022-12-26T12:57:49;6.20;;;1.17;;
34960;SDS011;30789;52.030;7.110;2022-12-26T13:00:18;9.52;;;1.50;;
34960;SDS011;30789;52.030;7.110;2022-12-26T13:02:48;3.50;;;1.35;;
34960;SDS011;30789;52.030;7.110;2022-12-26T13:05:18;3.13;;;1.10;;
34960;SDS011;30789;52.030;7.110;2022-12-26T13:07:47;7.07;;;1.90;;
34960;SDS011;30789;52.030;7.110;2022-12-26T13:10:15;4.50;;;1.40;;
34960;SDS011;30789;52.030;7.110;2022-12-26T13:12:43;8.35;;;2.35;;
34960;SDS011;30789;52.030;7.110;2022-12-26T13:15:18;5.30;;;1.92;;
34960;SDS011;30789;52.030;7.110;2022-12-26T13:17:50;15.00;;;3.35;;
34960;SDS011;30789;52.030;7.110;2022-12-26T13:20:20;4.32;;;1.30;;
34960;SDS011;30789;52.030;7.110;2022-12-26T13:22:48;4.50;;;1.75;;
34960;SDS011;30789;52.030;7.110;2022-12-26T13:25:36;8.43;;;1.58;;
34960;SDS011;30789;52.030;7.110;2022-12-26T13:28:05;3.92;;;1.42;;
34960;SDS011;30789;52.030;7.110;2022-12-26T13:30:36;5.50;;;1.40;;
34960;SDS011;30789;52.030;7.110;2022-12-26T13:33:03;7.10;;;1.35;;
34960;SDS011;30789;52.030;7.110;2022-12-26T13:35:48;3.58;;;1.05;;
34960;SDS011;30789;52.030;7.110;2022-12-26T13:38:15;5.93;;;1.20;;
34960;SDS011;30789;52.030;7.110;2022-12-26T13:40:44;7.40;;;1.20;;
34960;SDS011;30789;52.030;7.110;2022-12-26T13:43:13;3.45;;;0.82;;
34960;SDS011;30789;52.030;7.110;2022-12-26T13:46:01;3.70;;;0.93;;
34960;SDS011;30789;52.030;7.110;2022-12-26T13:48:53;5.10;;;1.15;;
34960;SDS011;30789;52.030;7.110;2022-12-26T13:54:07;3.75;;;1.17;;
34960;SDS011;30789;52.030;7.110;2022-12-26T13:57:00;7.38;;;1.25;;
34960;SDS011;30789;52.030;7.110;2022-12-26T13:59:30;4.25;;;1.25;;
34960;SDS011;30789;52.030;7.110;2022-12-26T14:02:12;2.80;;;1.20;;
34960;SDS011;30789;52.030;7.110;2022-12-26T14:04:46;4.88;;;1.45;;
34960;SDS011;30789;52.030;7.110;2022-12-26T14:07:18;6.05;;;1.40;;
34960;SDS011;30789;52.030;7.110;2022-12-26T14:09:52;2.45;;;1.25;;
34960;SDS011;30789;52.030;7.110;2022-12-26T14:12:25;3.28;;;1.30;;
34960;SDS011;30789;52.030;7.110;2022-12-26T14:14:57;5.70;;;2.22;;
34960;SDS011;30789;52.030;7.110;2022-12-26T14:17:32;3.95;;;1.27;;
34960;SDS011;30789;52.030;7.110;2022-12-26T14:20:00;3.88;;;1.15;;
34960;SDS011;30789;52.030;7.110;2022-12-26T14:22:29;3.70;;;1.42;;
34960;SDS011;30789;52.030;7.110;2022-12-26T14:25:03;5.75;;;2.22;;
34960;SDS011;30789;52.030;7.110;2022-12-26T14:27:32;2.87;;;1.23;;
34960;SDS011;30789;52.030;7.110;2022-12-26T14:30:04;5.03;;;1.40;;
34960;SDS011;30789;52.030;7.110;2022-12-26T14:32:44;2.05;;;1.25;;
34960;SDS011;30789;52.030;7.110;2022-12-26T14:35:14;3.47;;;1.08;;
34960;SDS011;30789;52.030;7.110;2022-12-26T14:37:47;2.17;;;1.30;;
34960;SDS011;30789;52.030;7.110;2022-12-26T14:40:24;2.25;;;0.98;;
34960;SDS011;30789;52.030;7.110;2022-12-26T14:43:01;1.27;;;0.75;;
34960;SDS011;30789;52.030;7.110;2022-12-26T14:45:37;3.47;;;0.98;;
34960;SDS011;30789;52.030;7.110;2022-12-26T14:50:47;7.32;;;1.20;;
34960;SDS011;30789;52.030;7.110;2022-12-26T14:53:27;6.32;;;1.45;;
34960;SDS011;30789;52.030;7.110;2022-12-26T14:55:56;3.55;;;1.27;;
34960;SDS011;30789;52.030;7.110;2022-12-26T14:58:36;11.18;;;1.30;;
34960;SDS011;30789;52.030;7.110;2022-12-26T15:03:47;3.60;;;0.80;;
34960;SDS011;30789;52.030;7.110;2022-12-26T15:09:06;3.10;;;1.00;;
34960;SDS011;30789;52.030;7.110;2022-12-26T15:11:56;7.47;;;1.00;;
34960;SDS011;30789;52.030;7.110;2022-12-26T15:17:18;3.65;;;0.98;;
34960;SDS011;30789;52.030;7.110;2022-12-26T15:28:29;3.05;;;1.00;;
34960;SDS011;30789;52.030;7.110;2022-12-26T15:31:05;4.25;;;1.02;;
34960;SDS011;30789;52.030;7.110;2022-12-26T15:33:36;5.60;;;1.30;;
34960;SDS011;30789;52.030;7.110;2022-12-26T15:36:05;3.75;;;0.88;;